Time;durP1;ratioP1;P1;durP2;ratioP2;P2;SDS_P1;SDS_P2;PMS_P1;PMS_P2;Temp;Humidity;BMP_temperature;BMP_pressure;BME280_temperature;BME280_humidity;BME280_pressure;Samples;Min_cycle;Max_cycle;Signal;HPM_P1;HPM_P2
2021/06/04 00:01:36;;;;;;;23.40;10.10;;;;;;;10.27;65.86;99808.87;2172171;81;20941;-67
2021/06/04 00:04:36;;;;;;;25.48;9.23;;;;;;;10.19;65.91;99809.19;2172060;81;20958;-67
2021/06/04 00:07:38;;;;;;;24.90;12.85;;;;;;;10.12;66.39;99799.88;2172176;81;21420;-66
2021/06/04 00:10:38;;;;;;;25.62;11.83;;;;;;;10.07;66.64;99804.49;2172492;81;21041;-67
2021/06/04 00:13:39;;;;;;;33.00;18.05;;;;;;;10.01;66.87;99805.61;2172147;81;20974;-67
2021/06/04 00:16:39;;;;;;;31.73;14.98;;;;;;;9.97;67.26;99805.34;2172200;81;20976;-67
2021/06/04 00:19:40;;;;;;;31.73;17.85;;;;;;;9.93;67.33;99805.08;2171956;81;21036;-67
2021/06/04 00:22:40;;;;;;;35.05;21.30;;;;;;;9.88;66.98;99809.21;2172176;81;21772;-67
2021/06/04 00:25:41;;;;;;;27.77;15.28;;;;;;;9.82;67.25;99805.52;2171878;81;21067;-68
2021/06/04 00:28:41;;;;;;;25.97;10.48;;;;;;;9.82;67.70;99804.68;2172426;81;21037;-67
2021/06/04 00:31:42;;;;;;;29.77;13.28;;;;;;;9.80;67.55;99802.13;2172119;81;20970;-67
2021/06/04 00:34:42;;;;;;;23.50;9.85;;;;;;;9.76;67.94;99803.64;2172360;81;21000;-67
2021/06/04 00:37:43;;;;;;;23.10;9.93;;;;;;;9.67;68.40;99801.79;2171810;82;21056;-67
2021/06/04 00:40:43;;;;;;;24.10;10.05;;;;;;;9.64;68.12;99798.42;2172349;81;21043;-67
2021/06/04 00:43:44;;;;;;;25.65;11.05;;;;;;;9.65;68.49;99798.83;2172140;82;21000;-65
2021/06/04 00:46:45;;;;;;;23.42;9.50;;;;;;;9.57;68.63;99803.52;2171903;81;21071;-63
2021/06/04 00:49:45;;;;;;;25.95;9.45;;;;;;;9.47;68.04;99803.92;2172115;82;21528;-66
2021/06/04 00:52:45;;;;;;;22.02;8.53;;;;;;;9.42;68.49;99800.63;2172182;81;20949;-63
2021/06/04 00:55:46;;;;;;;22.32;9.33;;;;;;;9.41;69.16;99806.80;2172220;81;21072;-65
2021/06/04 00:58:46;;;;;;;23.00;9.80;;;;;;;9.35;69.41;99806.59;2172287;81;20981;-66
2021/06/04 01:01:47;;;;;;;22.25;9.88;;;;;;;9.29;69.49;99804.19;2172256;81;21001;-65
2021/06/04 01:04:47;;;;;;;27.27;9.95;;;;;;;9.22;69.49;99804.51;2172005;81;21095;-66
2021/06/04 01:07:48;;;;;;;25.23;10.65;;;;;;;9.16;69.84;99805.60;2172135;82;21512;-66
2021/06/04 01:10:48;;;;;;;26.65;9.50;;;;;;;9.09;69.73;99801.05;2171994;81;21559;-65
2021/06/04 01:13:48;;;;;;;24.32;9.55;;;;;;;9.03;69.35;99794.77;2172053;81;20982;-67
2021/06/04 01:16:51;;;;;;;25.37;10.00;;;;;;;9.00;69.40;99798.81;2172304;81;20993;-64
2021/06/04 01:19:51;;;;;;;29.72;10.88;;;;;;;9.00;69.18;99804.05;2172349;81;21318;-67
2021/06/04 01:22:53;;;;;;;26.95;10.03;;;;;;;8.99;69.31;99801.90;2172419;81;21060;-67
2021/06/04 01:25:53;;;;;;;25.02;9.55;;;;;;;8.94;69.91;99797.28;2172116;81;21053;-67
2021/06/04 01:28:54;;;;;;;25.77;10.03;;;;;;;8.88;69.87;99802.77;2172135;81;20953;-64
2021/06/04 01:31:55;;;;;;;26.48;11.20;;;;;;;8.85;69.86;99802.89;2171982;82;21543;-66
2021/06/04 01:34:56;;;;;;;24.50;10.78;;;;;;;8.84;69.58;99800.70;2172386;81;21045;-66
2021/06/04 01:37:57;;;;;;;24.72;10.32;;;;;;;8.86;69.24;99800.64;2172183;81;21013;-66
2021/06/04 01:40:57;;;;;;;26.05;10.40;;;;;;;8.73;69.40;99808.58;2172310;81;21000;-65
2021/06/04 01:43:58;;;;;;;27.65;11.33;;;;;;;8.62;69.61;99811.14;2172166;81;21452;-65
2021/06/04 01:47:01;;;;;;;28.20;10.85;;;;;;;8.55;69.83;99807.05;2172342;81;21448;-66
2021/06/04 01:50:01;;;;;;;28.95;12.20;;;;;;;8.53;70.05;99808.84;2162032;82;21028;-65
2021/06/04 01:53:01;;;;;;;26.42;11.45;;;;;;;8.47;70.10;99804.70;2172132;82;21512;-64
2021/06/04 01:56:02;;;;;;;27.48;11.10;;;;;;;8.45;70.53;99805.22;2172191;81;21230;-64
2021/06/04 01:59:02;;;;;;;27.02;11.05;;;;;;;8.44;70.37;99805.25;2172519;81;21013;-65
2021/06/04 02:02:03;;;;;;;24.05;10.65;;;;;;;8.43;70.47;99808.33;2172377;81;20938;-67
2021/06/04 02:05:03;;;;;;;23.87;9.75;;;;;;;8.36;70.19;99805.97;2171908;82;21017;-67
2021/06/04 02:08:04;;;;;;;21.42;8.53;;;;;;;8.21;70.90;99813.45;2172313;81;20969;-66
2021/06/04 02:11:04;;;;;;;24.12;8.85;;;;;;;7.94;71.04;99816.14;2172560;81;21472;-67
2021/06/04 02:14:05;;;;;;;21.55;8.65;;;;;;;7.89;71.17;99816.74;2178582;81;21543;-67
2021/06/04 02:17:05;;;;;;;23.70;9.25;;;;;;;7.84;71.69;99822.56;2188818;81;21024;-67
2021/06/04 02:20:05;;;;;;;25.77;9.70;;;;;;;7.80;71.35;99823.13;2188730;81;20937;-65
2021/06/04 02:23:06;;;;;;;23.65;10.23;;;;;;;7.80;71.33;99817.91;2188723;81;21012;-67
2021/06/04 02:26:06;;;;;;;26.87;10.98;;;;;;;7.85;71.22;99820.36;2188634;81;20985;-65
2021/06/04 02:29:07;;;;;;;26.10;11.40;;;;;;;7.83;71.15;99815.66;2188708;81;20957;-66
2021/06/04 02:32:07;;;;;;;27.37;11.30;;;;;;;7.82;71.44;99817.02;2188707;81;20964;-64
2021/06/04 02:35:08;;;;;;;25.27;10.53;;;;;;;7.81;71.31;99812.22;2189230;81;20957;-66
2021/06/04 02:38:11;;;;;;;21.07;7.17;;;;;;;7.78;71.65;99818.40;2188982;81;21008;-67
2021/06/04 02:41:11;;;;;;;22.02;7.85;;;;;;;7.69;71.19;99818.72;2118117;83;21539;-65
2021/06/04 02:44:11;;;;;;;22.80;9.23;;;;;;;7.68;71.33;99810.94;2143959;83;21094;-65
2021/06/04 02:47:12;;;;;;;23.12;9.83;;;;;;;7.70;71.53;99815.21;2143513;83;21060;-66
2021/06/04 02:50:13;;;;;;;26.75;9.73;;;;;;;7.73;72.09;99812.92;2143960;83;21004;-67
2021/06/04 02:53:14;;;;;;;41.18;10.85;;;;;;;7.70;72.33;99813.91;2143974;83;21578;-66
2021/06/04 02:56:14;;;;;;;23.87;9.65;;;;;;;7.69;72.18;99810.05;2121525;84;21020;-67
2021/06/04 02:59:15;;;;;;;24.52;10.45;;;;;;;7.70;72.38;99814.34;2121610;84;21037;-63
2021/06/04 03:02:15;;;;;;;25.72;9.90;;;;;;;7.76;72.16;99819.38;2121521;84;21016;-67
2021/06/04 03:05:16;;;;;;;22.52;8.90;;;;;;;7.94;72.17;99823.11;2121262;84;21036;-67
2021/06/04 03:08:19;;;;;;;24.43;9.78;;;;;;;8.02;71.82;99819.79;2121399;84;21558;-67
2021/06/04 03:11:18;;;;;;;24.98;10.38;;;;;;;8.06;71.58;99821.83;2097510;84;21076;-67
2021/06/04 03:14:19;;;;;;;21.02;8.30;;;;;;;8.15;71.76;99817.59;2121282;84;21025;-66
2021/06/04 03:17:19;;;;;;;26.45;10.25;;;;;;;8.35;71.72;99812.09;2144520;83;21473;-67
2021/06/04 03:20:20;;;;;;;26.68;10.03;;;;;;;8.47;71.49;99815.16;2144507;83;20976;-66
2021/06/04 03:23:20;;;;;;;23.62;9.40;;;;;;;8.45;71.60;99815.67;2144491;83;21088;-67
2021/06/04 03:26:21;;;;;;;24.87;9.18;;;;;;;8.53;71.31;99814.08;2144390;83;21051;-67
2021/06/04 03:29:21;;;;;;;25.80;9.55;;;;;;;8.62;70.93;99812.45;2144708;83;21027;-64
2021/06/04 03:32:22;;;;;;;27.40;10.50;;;;;;;8.75;70.79;99819.38;2144585;83;20991;-65
2021/06/04 03:35:22;;;;;;;26.25;10.45;;;;;;;8.82;70.44;99815.63;2144505;83;21011;-67
2021/06/04 03:38:22;;;;;;;29.07;11.43;;;;;;;9.06;70.74;99815.58;2144458;83;21494;-66
2021/06/04 03:41:24;;;;;;;30.55;13.68;;;;;;;9.29;70.48;99810.73;2144099;83;21593;-67
2021/06/04 03:44:24;;;;;;;31.48;13.30;;;;;;;9.49;70.34;99806.47;2144660;83;20984;-67
2021/06/04 03:47:24;;;;;;;27.48;12.15;;;;;;;9.64;70.47;99810.22;2144498;83;21040;-66
2021/06/04 03:50:25;;;;;;;26.80;10.65;;;;;;;9.88;70.39;99807.03;2144613;83;21077;-64
2021/06/04 03:53:25;;;;;;;32.00;12.85;;;;;;;10.20;69.81;99806.97;2144336;83;20976;-67
2021/06/04 03:56:26;;;;;;;33.53;13.53;;;;;;;10.35;69.54;99812.02;2144386;83;21052;-67
2021/06/04 03:59:26;;;;;;;29.52;12.50;;;;;;;10.47;69.47;99814.54;2144403;83;21534;-67
2021/06/04 04:02:27;;;;;;;27.42;12.15;;;;;;;10.60;69.31;99810.06;2144352;83;20992;-67
2021/06/04 04:05:28;;;;;;;25.82;11.22;;;;;;;10.82;69.18;99809.92;2144272;83;20996;-67
2021/06/04 04:08:28;;;;;;;26.73;11.60;;;;;;;11.05;69.02;99804.46;2144129;83;21027;-67
2021/06/04 04:11:29;;;;;;;27.02;12.35;;;;;;;11.39;68.94;99813.36;2144452;83;20984;-66
2021/06/04 04:14:29;;;;;;;25.35;10.78;;;;;;;11.72;68.43;99809.13;2140800;83;21052;-68
2021/06/04 04:17:29;;;;;;;25.00;11.38;;;;;;;11.97;68.34;99816.66;2134134;83;20988;-66
2021/06/04 04:20:30;;;;;;;26.15;11.12;;;;;;;12.31;68.50;99816.22;2134128;83;21042;-65
2021/06/04 04:23:30;;;;;;;26.07;10.88;;;;;;;12.66;68.08;99818.77;2134192;83;21585;-65
2021/06/04 04:26:31;;;;;;;26.77;10.82;;;;;;;12.89;67.31;99818.84;2134054;83;21066;-66
2021/06/04 04:29:31;;;;;;;24.55;9.78;;;;;;;13.03;67.25;99819.85;2134056;83;21094;-64
2021/06/04 04:32:32;;;;;;;26.12;10.70;;;;;;;13.24;67.22;99816.50;2134368;83;20968;-66
2021/06/04 04:35:33;;;;;;;24.35;10.93;;;;;;;13.50;66.79;99818.99;2134048;83;21066;-66
2021/06/04 04:38:33;;;;;;;24.35;10.18;;;;;;;13.84;67.10;99808.66;2134040;83;20983;-65
2021/06/04 04:41:34;;;;;;;24.77;10.82;;;;;;;14.13;66.34;99814.47;2133993;83;21023;-64
2021/06/04 04:44:34;;;;;;;24.65;10.55;;;;;;;14.48;66.05;99811.46;2134159;83;21491;-66
2021/06/04 04:47:35;;;;;;;25.25;11.83;;;;;;;14.81;65.49;99808.56;2134177;83;20969;-63
2021/06/04 04:50:35;;;;;;;26.00;11.90;;;;;;;15.02;65.15;99804.18;2134175;83;21003;-64
2021/06/04 04:53:36;;;;;;;27.07;11.20;;;;;;;15.28;65.05;99806.45;2134045;83;20992;-66
2021/06/04 04:56:36;;;;;;;28.07;11.08;;;;;;;15.50;64.86;99798.44;2134464;83;21032;-62
2021/06/04 04:59:37;;;;;;;24.37;10.58;;;;;;;15.80;64.78;99801.34;2134181;83;20953;-66
2021/06/04 05:02:37;;;;;;;23.70;9.83;;;;;;;16.05;64.99;99800.06;2134108;83;21050;-65
2021/06/04 05:05:38;;;;;;;22.80;9.15;;;;;;;16.32;64.18;99800.45;2134024;83;21043;-66
2021/06/04 05:08:38;;;;;;;22.87;9.10;;;;;;;16.59;63.17;99804.28;2134169;83;21486;-67
2021/06/04 05:11:39;;;;;;;22.65;8.80;;;;;;;16.87;63.04;99800.16;2133847;83;21503;-67
2021/06/04 05:14:39;;;;;;;22.90;8.93;;;;;;;17.17;62.42;99798.44;2137176;83;20992;-68
2021/06/04 05:17:40;;;;;;;25.57;9.15;;;;;;;17.48;61.69;99798.81;2144526;83;20948;-68
2021/06/04 05:20:40;;;;;;;28.73;8.65;;;;;;;17.75;61.04;99799.05;2144242;83;21001;-68
2021/06/04 05:23:41;;;;;;;23.00;8.45;;;;;;;17.99;60.34;99793.71;2144503;83;21010;-67
2021/06/04 05:26:41;;;;;;;24.47;6.97;;;;;;;18.16;60.18;99795.91;2144369;83;21070;-66
2021/06/04 05:29:41;;;;;;;23.42;7.03;;;;;;;18.53;59.17;99794.37;2144183;83;21139;-68
2021/06/04 05:32:42;;;;;;;20.12;6.12;;;;;;;18.91;58.61;99794.96;2144281;83;21514;-67
2021/06/04 05:35:42;;;;;;;20.82;6.42;;;;;;;19.26;56.52;99796.56;2144239;83;20991;-68
2021/06/04 05:38:43;;;;;;;22.00;6.47;;;;;;;19.61;57.55;99798.14;2144502;83;21072;-68
2021/06/04 05:41:44;;;;;;;19.90;6.28;;;;;;;19.81;55.38;99799.62;2144424;83;21043;-67
2021/06/04 05:44:47;;;;;;;17.45;5.30;;;;;;;20.07;55.90;99798.27;2144216;83;21004;-67
2021/06/04 05:47:46;;;;;;;16.10;5.25;;;;;;;20.38;54.41;99790.29;2120399;83;20960;-67
2021/06/04 05:50:47;;;;;;;18.07;5.55;;;;;;;20.72;53.71;99788.71;2144543;83;21027;-65
2021/06/04 05:53:48;;;;;;;14.78;5.22;;;;;;;21.02;52.91;99798.10;2144614;83;20990;-67
2021/06/04 05:56:48;;;;;;;18.82;5.22;;;;;;;21.34;52.83;99801.05;2144249;83;21023;-67
2021/06/04 05:59:49;;;;;;;17.85;5.12;;;;;;;21.62;51.68;99800.72;2144612;83;21010;-68
2021/06/04 06:02:50;;;;;;;17.60;4.75;;;;;;;21.91;50.74;99799.84;2144374;83;21026;-68
2021/06/04 06:05:50;;;;;;;15.97;4.87;;;;;;;22.18;49.95;99796.92;2144517;83;21518;-68
2021/06/04 06:08:51;;;;;;;15.35;4.87;;;;;;;22.41;49.46;99803.64;2144557;83;21135;-68
2021/06/04 06:11:51;;;;;;;14.40;4.60;;;;;;;22.64;47.74;99801.44;2144408;83;21043;-67
2021/06/04 06:14:52;;;;;;;17.67;4.57;;;;;;;22.86;47.84;99800.69;2144369;83;21047;-66
2021/06/04 06:17:52;;;;;;;15.80;4.70;;;;;;;23.04;47.15;99799.38;2144455;83;21003;-63
2021/06/04 06:20:54;;;;;;;15.32;4.75;;;;;;;23.24;45.67;99795.27;2144013;83;21063;-63
2021/06/04 06:23:54;;;;;;;13.90;4.67;;;;;;;23.47;46.02;99797.00;2144599;83;20995;-68
2021/06/04 06:26:57;;;;;;;11.48;3.72;;;;;;;23.74;45.34;99799.24;2119786;83;21039;-67
2021/06/04 06:29:58;;;;;;;16.35;4.20;;;;;;;23.96;44.75;99794.73;2144520;83;20996;-67
2021/06/04 06:32:58;;;;;;;13.63;3.63;;;;;;;24.15;43.68;99800.41;2144864;83;20968;-63
2021/06/04 06:35:59;;;;;;;10.13;3.30;;;;;;;24.28;43.04;99802.67;2144861;83;20992;-66
2021/06/04 06:38:59;;;;;;;22.27;3.73;;;;;;;24.35;41.48;99803.72;2144757;83;20999;-67
2021/06/04 06:42:00;;;;;;;11.57;3.33;;;;;;;24.33;41.20;99806.20;2144739;83;21028;-69
2021/06/04 06:45:00;;;;;;;14.17;3.40;;;;;;;24.53;37.28;99802.80;2144395;83;21016;-67
2021/06/04 06:48:01;;;;;;;12.23;3.47;;;;;;;24.66;39.08;99803.72;2144616;83;20987;-64
2021/06/04 06:51:01;;;;;;;16.30;4.00;;;;;;;24.76;38.37;99797.72;2144520;83;21039;-69
2021/06/04 06:54:02;;;;;;;11.93;3.77;;;;;;;24.65;38.12;99804.23;2144593;83;21066;-67
2021/06/04 06:57:02;;;;;;;12.10;3.40;;;;;;;24.73;35.33;99801.56;2144603;83;21027;-67
2021/06/04 07:00:03;;;;;;;10.87;3.20;;;;;;;24.68;36.33;99798.55;2144675;83;20971;-66
2021/06/04 07:03:04;;;;;;;12.53;3.67;;;;;;;24.74;37.13;99795.72;2144655;83;21026;-66
2021/06/04 07:06:04;;;;;;;15.37;3.63;;;;;;;24.93;35.94;99797.28;2144598;83;20960;-67
2021/06/04 07:09:04;;;;;;;10.97;3.60;;;;;;;25.05;36.81;99807.20;2144659;83;20980;-68
2021/06/04 07:12:05;;;;;;;13.53;4.10;;;;;;;25.33;36.56;99805.61;2144573;83;21502;-69
2021/06/04 07:15:05;;;;;;;12.17;3.40;;;;;;;25.49;36.08;99802.13;2144379;83;21023;-69
2021/06/04 07:18:06;;;;;;;12.10;3.60;;;;;;;25.70;34.73;99798.45;2144592;83;21047;-69
2021/06/04 07:21:06;;;;;;;9.13;3.53;;;;;;;25.85;35.16;99802.63;2144261;83;21071;-68
2021/06/04 07:24:13;;;;;;;13.60;3.27;;;;;;;26.08;34.33;99810.03;2144843;83;20992;-69
2021/06/04 07:27:09;;;;;;;16.80;3.72;;;;;;;25.95;30.74;99799.77;2120109;83;21526;-68
2021/06/04 07:30:11;;;;;;;11.60;3.40;;;;;;;25.97;30.91;99803.11;2144664;83;21030;-69
2021/06/04 07:33:11;;;;;;;12.23;3.50;;;;;;;26.16;33.16;99806.48;2144430;83;20975;-68
2021/06/04 07:36:11;;;;;;;15.07;3.53;;;;;;;26.49;32.38;99807.73;2144625;83;21581;-69
2021/06/04 07:39:12;;;;;;;10.50;3.30;;;;;;;26.65;32.93;99806.35;2144642;83;21522;-69
2021/06/04 07:42:13;;;;;;;13.00;3.40;;;;;;;26.96;32.30;99802.86;2144691;83;21015;-69
2021/06/04 07:45:14;;;;;;;;;;;;;;;27.00;31.22;99801.50;2146788;83;21079;-69
2021/06/04 07:48:14;;;;;;;11.57;3.40;;;;;;;27.03;29.23;99800.31;2101331;85;20143;-68
2021/06/04 07:51:15;;;;;;;12.43;3.67;;;;;;;26.94;31.83;99796.31;2136431;83;20985;-70
2021/06/04 07:54:16;;;;;;;9.83;3.40;;;;;;;27.14;30.75;99799.92;2136665;83;20984;-69
2021/06/04 07:57:17;;;;;;;9.98;3.40;;;;;;;27.37;29.85;99795.06;2136519;83;21031;-70
2021/06/04 08:00:17;;;;;;;12.93;3.47;;;;;;;26.83;28.53;99794.02;2136935;83;20961;-70
2021/06/04 08:03:18;;;;;;;13.60;3.70;;;;;;;25.98;28.89;99800.77;2136704;83;20971;-65
2021/06/04 08:06:18;;;;;;;10.73;3.47;;;;;;;25.36;29.63;99803.96;2136619;83;21469;-67
2021/06/04 08:09:19;;;;;;;11.97;3.50;;;;;;;25.75;31.12;99807.34;2138312;83;21468;-66
2021/06/04 08:12:20;;;;;;;17.67;3.70;;;;;;;26.22;29.10;99796.38;2143805;83;21015;-69
2021/06/04 08:15:22;;;;;;;12.73;3.50;;;;;;;26.22;28.28;99807.12;2112319;83;21630;-68
2021/06/04 08:18:23;;;;;;;12.00;3.20;;;;;;;26.63;29.44;99807.84;2127996;84;21044;-66
2021/06/04 08:21:24;;;;;;;10.05;3.25;;;;;;;26.75;29.46;99769.34;2127329;84;21089;-66
2021/06/04 08:24:24;;;;;;;11.30;3.40;;;;;;;27.31;27.92;99800.63;2127864;83;20973;-67
2021/06/04 08:27:25;;;;;;;13.67;3.50;;;;;;;27.52;27.93;99800.01;2127891;84;21535;-68
2021/06/04 08:30:25;;;;;;;13.97;3.70;;;;;;;27.77;29.04;99804.70;2127833;84;20976;-70
2021/06/04 08:33:26;;;;;;;10.57;3.23;;;;;;;28.00;28.45;99796.59;2127864;84;21516;-70
2021/06/04 08:36:26;;;;;;;10.67;3.20;;;;;;;28.33;27.34;99799.45;2127880;84;21471;-70
2021/06/04 08:39:30;;;;;;;8.27;3.40;;;;;;;28.20;27.50;99800.61;2127757;84;21150;-69
2021/06/04 08:42:29;;;;;;;11.22;3.12;;;;;;;28.46;27.62;99796.09;2161767;82;20985;-70
2021/06/04 08:45:30;;;;;;;13.33;3.80;;;;;;;28.62;27.38;99794.60;2172380;81;20967;-70
2021/06/04 08:48:32;;;;;;;12.88;3.60;;;;;;;28.71;26.29;99789.94;2172108;81;20976;-69
2021/06/04 08:51:35;;;;;;;10.15;3.62;;;;;;;28.51;25.93;99789.64;2172053;81;21020;-69
2021/06/04 08:54:35;;;;;;;11.93;3.47;;;;;;;28.14;26.78;99788.70;2106564;84;20973;-69
2021/06/04 08:57:36;;;;;;;10.83;3.40;;;;;;;27.43;27.28;99797.89;2127864;84;21024;-70
2021/06/04 09:00:36;;;;;;;11.05;3.40;;;;;;;27.51;27.87;99795.63;2127733;84;20972;-70
2021/06/04 09:03:37;;;;;;;11.37;3.70;;;;;;;27.82;28.15;99794.72;2127734;84;21479;-68
2021/06/04 09:06:37;;;;;;;9.73;3.50;;;;;;;28.02;28.25;99778.06;2127685;84;20968;-69
2021/06/04 09:09:39;;;;;;;11.53;3.65;;;;;;;28.12;27.19;99786.72;2127207;84;21101;-70
2021/06/04 09:12:39;;;;;;;12.53;3.70;;;;;;;27.55;27.28;99780.78;2127996;84;21495;-69
2021/06/04 09:15:39;;;;;;;16.03;3.70;;;;;;;26.86;28.21;99773.98;2130716;83;21040;-67
2021/06/04 09:18:40;;;;;;;19.03;3.97;;;;;;;26.40;28.20;99776.00;2137314;83;20984;-69
2021/06/04 09:21:41;;;;;;;13.87;4.00;;;;;;;26.39;28.63;99776.52;2137375;83;21023;-68
2021/06/04 09:24:42;;;;;;;11.38;3.52;;;;;;;26.43;28.46;99773.82;2137126;83;21102;-68
2021/06/04 09:27:42;;;;;;;9.87;3.33;;;;;;;26.23;27.84;99769.83;2137333;83;20984;-69
2021/06/04 09:30:42;;;;;;;11.80;3.30;;;;;;;26.19;29.15;99764.46;2137206;83;21506;-69
2021/06/04 09:33:43;;;;;;;11.57;3.40;;;;;;;26.80;29.45;99766.11;2137248;83;21502;-69
2021/06/04 09:36:43;;;;;;;11.27;3.43;;;;;;;27.46;28.92;99759.81;2137174;83;21035;-70
2021/06/04 09:39:44;;;;;;;14.67;3.90;;;;;;;27.87;26.17;99757.28;2137338;83;20996;-71
2021/06/04 09:42:44;;;;;;;8.03;3.03;;;;;;;27.82;28.95;99765.06;2137247;83;21027;-71
2021/06/04 09:45:44;;;;;;;11.43;3.43;;;;;;;27.94;27.07;99762.27;2137458;83;21028;-70
2021/06/04 09:48:45;;;;;;;8.67;3.40;;;;;;;28.14;26.49;99755.00;2137225;83;20941;-71
2021/06/04 09:51:46;;;;;;;6.67;3.02;;;;;;;28.54;27.41;99755.54;2136902;83;20976;-70
2021/06/04 09:54:46;;;;;;;12.57;3.60;;;;;;;28.85;26.72;99746.41;2137170;83;20988;-70
2021/06/04 09:57:47;;;;;;;10.67;3.20;;;;;;;28.05;26.40;99757.47;2137577;83;20980;-70
2021/06/04 10:00:47;;;;;;;10.27;3.33;;;;;;;28.02;26.87;99754.63;2137630;83;20964;-68
2021/06/04 10:03:48;;;;;;;12.27;3.50;;;;;;;28.48;27.14;99746.86;2137277;83;21019;-70
2021/06/04 10:06:49;;;;;;;11.47;3.37;;;;;;;28.41;26.19;99742.72;2137372;83;20995;-67
2021/06/04 10:09:50;;;;;;;9.90;3.40;;;;;;;28.33;26.33;99750.41;2137123;83;21475;-70
2021/06/04 10:12:56;;;;;;;8.23;3.20;;;;;;;28.56;26.24;99743.20;2137426;83;20944;-69
2021/06/04 10:15:53;;;;;;;8.70;3.05;;;;;;;28.84;26.09;99750.13;2165265;81;21032;-68
2021/06/04 10:18:53;;;;;;;11.20;3.03;;;;;;;29.23;25.80;99748.07;2188976;81;20985;-69
2021/06/04 10:21:53;;;;;;;8.93;3.27;;;;;;;29.46;25.44;99743.81;2189129;81;20989;-69
2021/06/04 10:24:54;;;;;;;11.00;3.20;;;;;;;29.73;25.21;99748.39;2188963;81;21043;-71
2021/06/04 10:27:54;;;;;;;10.87;3.13;;;;;;;29.85;25.04;99746.00;2189114;81;21013;-70
2021/06/04 10:30:55;;;;;;;10.47;3.40;;;;;;;30.02;25.18;99738.95;2188745;81;21028;-69
2021/06/04 10:33:55;;;;;;;11.50;3.30;;;;;;;30.12;25.12;99739.95;2189092;81;21468;-68
2021/06/04 10:36:55;;;;;;;9.67;3.10;;;;;;;30.40;25.07;99740.73;2188987;81;21548;-70
2021/06/04 10:39:56;;;;;;;9.93;3.13;;;;;;;30.35;24.45;99736.95;2188933;81;20965;-65
2021/06/04 10:42:56;;;;;;;13.07;3.30;;;;;;;30.22;24.81;99722.31;2188983;81;20976;-69
2021/06/04 10:45:57;;;;;;;8.40;3.10;;;;;;;29.58;24.03;99723.84;2189309;81;20992;-71
2021/06/04 10:48:57;;;;;;;13.00;3.13;;;;;;;29.50;25.31;99722.12;2189182;81;20965;-69
2021/06/04 10:51:58;;;;;;;9.60;3.02;;;;;;;29.82;25.01;99727.97;2189008;81;21051;-68
2021/06/04 10:54:59;;;;;;;7.28;2.90;;;;;;;30.09;25.16;99718.19;2188516;81;21491;-67
2021/06/04 10:57:59;;;;;;;12.77;3.30;;;;;;;30.31;24.92;99705.92;2188856;81;21008;-70
2021/06/04 11:01:03;;;;;;;13.03;3.35;;;;;;;30.13;25.42;99696.48;2188322;81;21100;-70
2021/06/04 11:04:06;;;;;;;;;;;;;;;29.95;24.26;99697.52;2191262;81;21562;-71
2021/06/04 11:07:06;;;;;;;12.93;3.12;;;;;;;29.91;23.63;99709.23;2171994;81;20422;-69
2021/06/04 11:10:07;;;;;;;11.60;3.27;;;;;;;30.02;24.65;99701.92;2188747;81;20980;-70
2021/06/04 11:13:07;;;;;;;13.67;3.17;;;;;;;30.04;24.72;99701.72;2189057;81;21012;-69
2021/06/04 11:16:08;;;;;;;9.47;3.27;;;;;;;30.34;24.14;99700.11;2188982;81;21005;-71
2021/06/04 11:19:09;;;;;;;;;;;;;;;30.23;24.48;99696.94;2191290;81;21016;-71
2021/06/04 11:22:09;;;;;;;11.67;3.27;;;;;;;30.17;24.67;99696.40;2189105;81;20128;-66
2021/06/04 11:25:10;;;;;;;10.90;2.90;;;;;;;30.14;24.07;99703.56;2189056;81;21015;-71
2021/06/04 11:28:10;;;;;;;13.73;3.17;;;;;;;29.89;23.90;99705.91;2188876;81;21016;-71
2021/06/04 11:31:11;;;;;;;8.40;2.90;;;;;;;29.58;23.80;99694.94;2188785;81;21000;-71
2021/06/04 11:34:11;;;;;;;11.63;3.13;;;;;;;29.53;23.88;99701.47;2189050;81;20999;-72
2021/06/04 11:37:12;;;;;;;8.90;2.93;;;;;;;29.61;23.44;99689.16;2189167;81;21067;-72
2021/06/04 11:40:12;;;;;;;12.07;3.23;;;;;;;29.76;24.86;99691.75;2188904;81;21015;-71
2021/06/04 11:43:13;;;;;;;10.10;3.10;;;;;;;30.17;23.68;99687.43;2188968;81;21012;-71
2021/06/04 11:46:13;;;;;;;7.70;2.83;;;;;;;30.01;23.87;99682.69;2188962;81;21707;-71
2021/06/04 11:49:14;;;;;;;10.23;3.00;;;;;;;29.84;23.57;99690.28;2188976;81;21571;-71
2021/06/04 11:52:15;;;;;;;8.23;3.08;;;;;;;29.91;23.50;99693.01;2188548;81;21077;-70
2021/06/04 11:55:15;;;;;;;9.00;3.30;;;;;;;30.21;24.33;99684.15;2188827;81;21051;-69
2021/06/04 11:58:16;;;;;;;12.43;3.07;;;;;;;30.44;23.22;99677.59;2188872;81;21003;-70
2021/06/04 12:01:17;;;;;;;;;;;;;;;30.54;24.17;99675.86;2191276;81;21052;-69
2021/06/04 12:04:17;;;;;;;9.07;3.00;;;;;;;30.22;23.43;99676.33;2189055;81;20394;-71
2021/06/04 12:07:18;;;;;;;10.27;3.10;;;;;;;30.36;22.15;99676.41;2188866;81;20987;-72
2021/06/04 12:10:18;;;;;;;9.57;2.80;;;;;;;30.42;23.33;99675.62;2188870;81;21089;-70
2021/06/04 12:13:18;;;;;;;8.50;2.97;;;;;;;30.23;23.67;99674.48;2188902;81;20999;-71
2021/06/04 12:16:19;;;;;;;7.50;2.87;;;;;;;30.63;23.24;99671.94;2188840;81;21048;-72
2021/06/04 12:19:22;;;;;;;9.95;2.90;;;;;;;30.84;22.82;99674.98;2188820;81;21192;-69
2021/06/04 12:22:22;;;;;;;10.93;3.05;;;;;;;31.03;21.22;99667.13;2117221;83;21573;-70
2021/06/04 12:25:22;;;;;;;10.90;3.17;;;;;;;30.74;23.77;99668.61;2144026;83;20963;-71
2021/06/04 12:28:23;;;;;;;8.23;2.87;;;;;;;30.75;23.17;99662.70;2144090;83;20940;-71
2021/06/04 12:31:23;;;;;;;11.48;3.02;;;;;;;30.91;23.59;99657.41;2144107;83;20979;-70
2021/06/04 12:34:24;;;;;;;7.37;2.80;;;;;;;31.12;23.55;99655.07;2143990;83;21015;-71
2021/06/04 12:37:24;;;;;;;10.78;3.27;;;;;;;31.51;22.98;99649.84;2143987;83;21019;-71
2021/06/04 12:40:25;;;;;;;10.13;3.00;;;;;;;31.48;23.05;99651.09;2143869;83;21015;-73
2021/06/04 12:43:25;;;;;;;13.78;2.70;;;;;;;31.63;22.28;99640.57;2143870;83;21035;-72
2021/06/04 12:46:26;;;;;;;8.43;2.80;;;;;;;31.82;23.00;99638.31;2143891;83;21059;-71
2021/06/04 12:49:26;;;;;;;9.20;2.90;;;;;;;31.44;22.31;99633.05;2143912;83;20995;-70
2021/06/04 12:52:27;;;;;;;8.93;2.77;;;;;;;30.75;21.22;99638.33;2144021;83;21019;-71
2021/06/04 12:55:27;;;;;;;9.27;3.00;;;;;;;30.24;22.29;99633.69;2144055;83;21179;-71
2021/06/04 12:58:29;;;;;;;9.50;2.90;;;;;;;30.21;20.63;99635.45;2143308;83;21697;-70
2021/06/04 13:01:29;;;;;;;13.48;3.20;;;;;;;30.24;23.29;99633.69;2143864;83;20979;-71
2021/06/04 13:04:30;;;;;;;7.20;2.97;;;;;;;30.77;22.90;99621.34;2144087;83;21003;-70
2021/06/04 13:07:30;;;;;;;10.55;3.15;;;;;;;31.14;22.77;99621.83;2144100;83;20980;-72
2021/06/04 13:10:31;;;;;;;7.35;2.80;;;;;;;31.55;22.49;99629.38;2143956;83;21012;-69
2021/06/04 13:13:32;;;;;;;12.68;3.25;;;;;;;31.69;20.81;99628.34;2143869;83;20998;-70
2021/06/04 13:16:35;;;;;;;9.18;3.10;;;;;;;31.60;21.94;99622.84;2138813;83;21011;-72
2021/06/04 13:19:35;;;;;;;10.35;2.90;;;;;;;31.54;21.61;99617.72;2127418;84;21032;-69
2021/06/04 13:22:36;;;;;;;10.23;2.95;;;;;;;31.60;21.03;99614.18;2127734;84;20968;-72
2021/06/04 13:25:36;;;;;;;9.58;3.00;;;;;;;32.00;21.92;99623.27;2127265;84;21036;-72
2021/06/04 13:28:37;;;;;;;10.43;3.10;;;;;;;31.80;21.27;99621.44;2127718;83;21519;-71
2021/06/04 13:31:37;;;;;;;21.90;3.62;;;;;;;31.68;20.92;99617.70;2127728;84;21495;-73
2021/06/04 13:34:37;;;;;;;8.20;2.70;;;;;;;31.43;20.65;99624.62;2127909;84;21471;-73
2021/06/04 13:37:38;;;;;;;10.95;2.60;;;;;;;30.91;21.70;99628.44;2127892;84;21526;-73
2021/06/04 13:40:38;;;;;;;7.20;2.75;;;;;;;31.17;21.47;99627.35;2127899;84;21012;-72
2021/06/04 13:43:39;;;;;;;7.50;2.98;;;;;;;30.73;19.84;99622.30;2128011;84;20949;-71
2021/06/04 13:46:39;;;;;;;10.00;2.72;;;;;;;29.70;22.35;99620.92;2127471;84;21031;-70
2021/06/04 13:49:40;;;;;;;15.23;3.30;;;;;;;29.31;22.21;99616.94;2127940;84;20969;-69
2021/06/04 13:52:40;;;;;;;13.17;3.10;;;;;;;29.31;22.29;99612.35;2128027;83;21560;-72
2021/06/04 13:55:42;;;;;;;8.80;2.77;;;;;;;29.75;24.04;99615.73;2128014;83;21287;-69
2021/06/04 13:58:43;;;;;;;13.25;3.20;;;;;;;30.10;22.18;99607.63;2127283;84;21091;-68
2021/06/04 14:01:44;;;;;;;14.70;3.00;;;;;;;30.51;23.05;99598.61;2127998;83;20996;-72